Greenslough, Ireland
Current Conditions -  °F | °C
As of 12:30 PM on Saturday 20 Dec 2014 (Local Time) from EIDL Reporting Station
Scattered Clouds Scattered Clouds  
Wind Chill: 40°   Ceiling: Unl
Heat Index: 46°   Visibility: 4mi
Dew Point: 41°   Wind: 16mph
Humidity: 81%   Direction: 280°W
Pressure: 30.3"   Gusts: NA
Location:  55.12°N, 7.9°W
Report Text: EIDL 201230Z 28014KT 7000 FEW010 SCT018 SCT032 08/05 Q1026
Loading
Personal Weather Stations






























Interactive Weather Map New forecast layout! Learn more

10-Day Weather Forecast

Advertisements
Track Severe Weather on mobile